Time;durP1;ratioP1;P1;durP2;ratioP2;P2;SDS_P1;SDS_P2;PMS_P1;PMS_P2;Temp;Humidity;BMP_temperature;BMP_pressure;BME280_temperature;BME280_humidity;BME280_pressure;Samples;Min_cycle;Max_cycle;Signal;HPM_P1;HPM_P2
2021/01/16 00:01:24;;;;;;;14.00;8.93;;;0.50;99.90;;;;;;4996316;28;20187;-77
2021/01/16 00:03:50;;;;;;;13.43;8.50;;;0.50;99.90;;;;;;4996362;28;20179;-77
2021/01/16 00:06:15;;;;;;;13.27;8.90;;;0.50;99.90;;;;;;4996216;28;20298;-78
2021/01/16 00:08:42;;;;;;;11.43;8.07;;;0.50;99.90;;;;;;4980207;28;20199;-78
2021/01/16 00:11:09;;;;;;;12.97;8.30;;;0.50;99.90;;;;;;5012686;28;20186;-77
2021/01/16 00:13:34;;;;;;;14.17;9.13;;;0.50;99.90;;;;;;4980363;28;20554;-77
2021/01/16 00:16:01;;;;;;;13.43;8.50;;;0.50;99.90;;;;;;4996156;28;20203;-77
2021/01/16 00:18:26;;;;;;;14.07;9.10;;;0.50;99.90;;;;;;4996177;28;20258;-78
2021/01/16 00:20:56;;;;;;;13.67;8.53;;;0.60;99.90;;;;;;4995973;28;20180;-77
2021/01/16 00:23:26;;;;;;;13.13;8.73;;;0.60;99.90;;;;;;4996255;28;20586;-78
2021/01/16 00:25:52;;;;;;;12.53;8.03;;;0.60;99.90;;;;;;4979920;28;20223;-77
2021/01/16 00:28:29;;;;;;;14.73;8.97;;;0.60;99.90;;;;;;4995906;28;20183;-78
2021/01/16 00:30:56;;;;;;;14.50;9.30;;;0.60;99.90;;;;;;4996095;28;20186;-77
2021/01/16 00:33:32;;;;;;;18.37;9.73;;;0.60;99.90;;;;;;4995460;28;20187;-78
2021/01/16 00:35:58;;;;;;;16.27;9.20;;;0.60;99.90;;;;;;4996903;28;20226;-77
2021/01/16 00:38:24;;;;;;;15.30;9.07;;;0.60;99.90;;;;;;4995830;28;20667;-77
2021/01/16 00:40:49;;;;;;;14.73;8.53;;;0.50;99.90;;;;;;4979630;28;20189;-78
2021/01/16 00:43:16;;;;;;;13.33;9.23;;;0.50;99.90;;;;;;5012091;28;20183;-77
2021/01/16 00:45:45;;;;;;;15.83;9.67;;;0.50;99.90;;;;;;4995768;28;20206;-77
2021/01/16 00:48:12;;;;;;;15.87;9.50;;;0.50;99.90;;;;;;4996031;28;20215;-77
2021/01/16 00:50:39;;;;;;;14.00;8.73;;;0.50;99.90;;;;;;4995545;28;20187;-76
2021/01/16 00:53:04;;;;;;;15.53;9.73;;;0.50;99.90;;;;;;4979328;28;20191;-77
2021/01/16 00:55:30;;;;;;;14.53;9.17;;;0.50;99.90;;;;;;4995558;28;20203;-77
2021/01/16 00:57:56;;;;;;;15.43;9.00;;;0.50;99.90;;;;;;4995839;28;20184;-77
2021/01/16 01:00:26;;;;;;;13.63;9.00;;;0.50;99.90;;;;;;4979972;28;20189;-77
2021/01/16 01:02:51;;;;;;;14.07;9.33;;;0.60;99.90;;;;;;4996546;28;20188;-77
2021/01/16 01:05:21;;;;;;;15.43;9.73;;;0.60;99.90;;;;;;4995954;28;20577;-77
2021/01/16 01:07:48;;;;;;;14.83;9.10;;;0.50;99.90;;;;;;4979885;28;20179;-77
2021/01/16 01:10:15;;;;;;;14.93;9.57;;;0.60;99.90;;;;;;4980003;28;20171;-77
2021/01/16 01:12:40;;;;;;;17.13;10.03;;;0.50;99.90;;;;;;5012203;28;20175;-77
2021/01/16 01:15:07;;;;;;;17.27;9.93;;;0.50;99.90;;;;;;5013087;28;20245;-77
2021/01/16 01:17:32;;;;;;;17.33;10.03;;;0.50;99.90;;;;;;4979639;28;20675;-77
2021/01/16 01:19:58;;;;;;;15.93;9.47;;;0.40;99.90;;;;;;4979363;28;20294;-77
2021/01/16 01:22:25;;;;;;;15.87;9.77;;;0.50;99.90;;;;;;5012095;28;20175;-77
2021/01/16 01:24:50;;;;;;;15.53;9.60;;;0.50;99.90;;;;;;4995699;28;20215;-77
2021/01/16 01:27:16;;;;;;;15.27;9.03;;;0.60;99.90;;;;;;4995606;28;20171;-77
2021/01/16 01:29:41;;;;;;;15.73;10.00;;;0.60;99.90;;;;;;4995933;28;20176;-77
2021/01/16 01:32:07;;;;;;;18.97;10.43;;;0.50;99.90;;;;;;4995538;28;20178;-77
2021/01/16 01:34:33;;;;;;;17.13;9.77;;;0.60;99.90;;;;;;4995579;28;20233;-77
2021/01/16 01:36:58;;;;;;;17.67;10.10;;;0.60;99.90;;;;;;4979173;28;20184;-77
2021/01/16 01:39:24;;;;;;;19.27;10.77;;;0.60;99.90;;;;;;4979709;28;20215;-77
2021/01/16 01:41:49;;;;;;;18.87;10.57;;;0.50;99.90;;;;;;4995554;28;20179;-77
2021/01/16 01:44:15;;;;;;;19.03;10.77;;;0.60;99.90;;;;;;4979204;28;20198;-77
2021/01/16 01:46:40;;;;;;;18.47;10.40;;;0.60;99.90;;;;;;4979014;28;20222;-76
2021/01/16 01:49:06;;;;;;;17.27;10.57;;;0.70;99.90;;;;;;4995369;28;20652;-76
2021/01/16 01:51:32;;;;;;;16.63;10.40;;;0.60;99.90;;;;;;4995421;28;20262;-77
2021/01/16 01:53:58;;;;;;;16.70;10.37;;;0.60;99.90;;;;;;5011700;28;20228;-77
2021/01/16 01:56:27;;;;;;;20.63;10.50;;;0.60;99.90;;;;;;4995467;28;20258;-77
2021/01/16 01:58:54;;;;;;;18.27;10.10;;;0.60;99.90;;;;;;4995513;28;20207;-77
2021/01/16 02:01:20;;;;;;;19.13;10.47;;;0.60;99.90;;;;;;4995118;28;20176;-77
2021/01/16 02:03:48;;;;;;;19.30;10.30;;;0.50;99.90;;;;;;4995387;28;20647;-77
2021/01/16 02:06:14;;;;;;;15.93;10.23;;;0.60;99.90;;;;;;4979070;28;20178;-77
2021/01/16 02:08:40;;;;;;;18.43;10.80;;;0.60;99.90;;;;;;4995256;28;20190;-77
2021/01/16 02:11:05;;;;;;;17.70;10.60;;;0.60;99.90;;;;;;4995307;28;20179;-77
2021/01/16 02:13:31;;;;;;;16.30;10.30;;;0.60;99.90;;;;;;4979483;28;20592;-77
2021/01/16 02:16:03;;;;;;;20.57;11.10;;;0.60;99.90;;;;;;4979035;28;20203;-77
2021/01/16 02:18:45;;;;;;;17.87;11.00;;;0.50;99.90;;;;;;4979446;28;20211;-77
2021/01/16 02:21:13;;;;;;;16.77;10.93;;;0.50;99.90;;;;;;4995523;28;20545;-77
2021/01/16 02:23:53;;;;;;;16.57;10.13;;;0.60;99.90;;;;;;4979401;28;20217;-76
2021/01/16 02:26:48;;;;;;;18.73;10.70;;;0.80;99.90;;;;;;4980005;28;20193;-77
2021/01/16 02:29:13;;;;;;;18.13;10.37;;;0.70;99.90;;;;;;4995055;28;20710;-77
2021/01/16 02:31:44;;;;;;;17.50;10.63;;;0.60;99.90;;;;;;4979204;28;20238;-77
2021/01/16 02:34:14;;;;;;;18.50;10.53;;;0.50;99.90;;;;;;4995810;28;20242;-77
2021/01/16 02:37:11;;;;;;;15.70;10.27;;;0.50;99.90;;;;;;4978853;28;20193;-77
2021/01/16 02:39:41;;;;;;;16.47;10.67;;;0.50;99.90;;;;;;4997380;28;20207;-77
2021/01/16 02:42:08;;;;;;;18.23;10.17;;;0.50;99.90;;;;;;4995449;28;20275;-77
2021/01/16 02:44:36;;;;;;;16.00;10.37;;;0.50;99.90;;;;;;4995099;28;20207;-77
2021/01/16 02:47:19;;;;;;;18.27;10.83;;;0.50;99.90;;;;;;5011488;28;20259;-77
2021/01/16 02:49:53;;;;;;;19.43;10.63;;;0.60;99.90;;;;;;4980303;28;20190;-77
2021/01/16 02:52:19;;;;;;;18.77;10.87;;;0.60;99.90;;;;;;4996123;28;20184;-77
2021/01/16 02:54:45;;;;;;;18.90;10.47;;;0.60;99.90;;;;;;4979015;28;20301;-77
2021/01/16 02:57:11;;;;;;;17.13;10.77;;;0.50;99.90;;;;;;4996717;28;20310;-77
2021/01/16 02:59:46;;;;;;;18.40;11.07;;;0.50;99.90;;;;;;4982471;28;20215;-77
2021/01/16 03:02:13;;;;;;;18.00;10.70;;;0.50;99.90;;;;;;4998533;28;20246;-77
2021/01/16 03:04:39;;;;;;;16.77;10.50;;;0.50;99.90;;;;;;4982128;28;20298;-77
2021/01/16 03:07:06;;;;;;;19.50;11.40;;;0.40;99.90;;;;;;4998066;28;20214;-77
2021/01/16 03:09:32;;;;;;;17.03;11.23;;;0.50;99.90;;;;;;4981955;28;20195;-77
2021/01/16 03:11:57;;;;;;;21.20;11.57;;;0.50;99.90;;;;;;4982036;28;20187;-77
2021/01/16 03:14:24;;;;;;;17.47;10.73;;;0.60;99.90;;;;;;4981855;28;20214;-76
2021/01/16 03:17:13;;;;;;;18.37;10.60;;;0.70;99.90;;;;;;4982195;28;20189;-77
2021/01/16 03:19:49;;;;;;;19.40;10.80;;;0.60;99.90;;;;;;5006600;28;20226;-77
2021/01/16 03:22:19;;;;;;;18.97;11.40;;;0.60;99.90;;;;;;4982014;28;20190;-77
2021/01/16 03:24:45;;;;;;;18.83;11.10;;;0.60;99.90;;;;;;4981951;28;20262;-77
2021/01/16 03:27:11;;;;;;;20.77;11.80;;;0.50;99.90;;;;;;4981453;28;20179;-76
2021/01/16 03:29:37;;;;;;;18.90;11.83;;;0.60;99.90;;;;;;4996804;28;20194;-77
2021/01/16 03:32:04;;;;;;;18.80;10.83;;;0.70;99.90;;;;;;4981736;28;20571;-77
2021/01/16 03:34:29;;;;;;;19.20;11.47;;;0.70;99.90;;;;;;4981706;28;20559;-77
2021/01/16 03:36:55;;;;;;;17.80;10.50;;;0.70;99.90;;;;;;4981501;28;20185;-76
2021/01/16 03:39:21;;;;;;;21.07;11.90;;;0.60;99.90;;;;;;4997709;28;20213;-77
2021/01/16 03:41:46;;;;;;;18.67;11.40;;;0.60;99.90;;;;;;5014206;28;20251;-77
2021/01/16 03:44:12;;;;;;;22.10;11.40;;;0.50;99.90;;;;;;4997379;28;20210;-76
2021/01/16 03:46:37;;;;;;;17.77;10.67;;;0.50;99.90;;;;;;4978147;28;20182;-77
2021/01/16 03:49:03;;;;;;;17.93;11.30;;;0.60;99.90;;;;;;4978250;28;20194;-76
2021/01/16 03:51:28;;;;;;;17.90;10.87;;;0.50;99.90;;;;;;4994196;28;20642;-77
2021/01/16 03:53:54;;;;;;;18.57;10.63;;;0.50;99.90;;;;;;4978106;28;20183;-76
2021/01/16 03:56:20;;;;;;;16.40;10.67;;;0.50;99.90;;;;;;4977736;28;20184;-77
2021/01/16 03:58:45;;;;;;;17.10;11.00;;;0.50;99.90;;;;;;4994017;28;20280;-77
2021/01/16 04:01:11;;;;;;;16.97;11.80;;;0.50;99.90;;;;;;4977727;28;20186;-77
2021/01/16 04:03:36;;;;;;;17.03;10.83;;;0.60;99.90;;;;;;4994262;28;20187;-76
2021/01/16 04:06:02;;;;;;;18.27;11.40;;;0.50;99.90;;;;;;4976951;28;20576;-77
2021/01/16 04:08:28;;;;;;;19.13;10.53;;;0.60;99.90;;;;;;4976418;28;20562;-76
2021/01/16 04:10:53;;;;;;;17.83;11.27;;;0.60;99.90;;;;;;4993581;28;20647;-75
2021/01/16 04:13:19;;;;;;;17.77;10.87;;;0.70;99.90;;;;;;4977579;28;20222;-76
2021/01/16 04:15:44;;;;;;;17.73;10.43;;;0.70;99.90;;;;;;4977035;28;20207;-77
2021/01/16 04:18:12;;;;;;;17.60;10.80;;;0.70;99.90;;;;;;4993049;28;20186;-76
2021/01/16 04:20:38;;;;;;;17.67;11.47;;;0.70;99.90;;;;;;4993575;28;20186;-77
2021/01/16 04:23:04;;;;;;;16.70;10.57;;;0.70;99.90;;;;;;4976994;28;20183;-77
2021/01/16 04:25:30;;;;;;;15.83;10.37;;;0.60;99.90;;;;;;4976955;28;20246;-77
2021/01/16 04:27:56;;;;;;;18.23;11.37;;;0.50;99.90;;;;;;4977111;28;20532;-77
2021/01/16 04:30:22;;;;;;;19.73;11.53;;;0.50;99.90;;;;;;4976925;28;20588;-76
2021/01/16 04:32:50;;;;;;;16.80;10.17;;;0.40;99.90;;;;;;4976646;28;20660;-77
2021/01/16 04:35:16;;;;;;;17.90;10.47;;;0.40;99.90;;;;;;4976354;28;20219;-76
2021/01/16 04:37:43;;;;;;;19.37;11.47;;;0.40;99.90;;;;;;4976161;28;20184;-77
2021/01/16 04:40:10;;;;;;;16.50;9.93;;;0.40;99.90;;;;;;4992529;28;20559;-76
2021/01/16 04:42:39;;;;;;;16.53;10.43;;;0.40;99.90;;;;;;4976273;28;20793;-76
2021/01/16 04:45:05;;;;;;;15.93;10.07;;;0.40;99.90;;;;;;4976562;28;20211;-77
2021/01/16 04:47:30;;;;;;;16.77;10.33;;;0.50;99.90;;;;;;4992909;28;20678;-77
2021/01/16 04:49:56;;;;;;;15.80;10.30;;;0.60;99.90;;;;;;4976505;28;20175;-76
2021/01/16 04:52:27;;;;;;;17.03;10.37;;;0.50;99.90;;;;;;4993100;28;20559;-76
2021/01/16 04:54:53;;;;;;;17.03;10.00;;;0.50;99.90;;;;;;4992568;28;20211;-76
2021/01/16 04:57:19;;;;;;;16.97;10.87;;;0.50;99.90;;;;;;4992053;28;20188;-77
2021/01/16 04:59:45;;;;;;;16.80;10.03;;;0.50;99.90;;;;;;4975825;28;20575;-77
2021/01/16 05:02:11;;;;;;;17.87;10.23;;;0.50;99.90;;;;;;4975915;28;20434;-76
2021/01/16 05:04:40;;;;;;;18.73;10.73;;;0.40;99.90;;;;;;4992051;28;20571;-77
2021/01/16 05:07:06;;;;;;;17.13;10.53;;;0.50;99.90;;;;;;4991972;28;20173;-76
2021/01/16 05:09:32;;;;;;;15.17;10.07;;;0.50;99.90;;;;;;4991889;28;20649;-77
2021/01/16 05:12:32;;;;;;;16.90;10.63;;;0.50;99.90;;;;;;4991962;28;20186;-76
2021/01/16 05:15:04;;;;;;;17.87;10.63;;;0.50;99.90;;;;;;4978344;28;20206;-76
2021/01/16 05:17:30;;;;;;;16.87;10.73;;;0.50;99.90;;;;;;4991831;28;20192;-76
2021/01/16 05:19:56;;;;;;;15.60;9.73;;;0.60;99.90;;;;;;4991451;28;20286;-76
2021/01/16 05:22:21;;;;;;;15.80;10.23;;;0.50;99.90;;;;;;4991844;28;20594;-76
2021/01/16 05:24:48;;;;;;;20.03;10.60;;;0.60;99.90;;;;;;4991922;28;20281;-76
2021/01/16 05:27:20;;;;;;;16.47;10.10;;;0.60;99.90;;;;;;4975831;28;20724;-76
2021/01/16 05:29:45;;;;;;;15.90;9.80;;;0.50;99.90;;;;;;4991956;28;20654;-76
2021/01/16 05:32:11;;;;;;;15.80;9.40;;;0.50;99.90;;;;;;4975659;28;20180;-76
2021/01/16 05:34:37;;;;;;;18.80;10.77;;;0.50;99.90;;;;;;4975178;28;20242;-77
2021/01/16 05:37:02;;;;;;;15.63;9.70;;;0.70;99.90;;;;;;4991399;28;20207;-76
2021/01/16 05:39:29;;;;;;;15.47;9.73;;;0.70;99.90;;;;;;4991525;28;20200;-77
2021/01/16 05:41:57;;;;;;;14.47;9.73;;;0.60;99.90;;;;;;4991763;28;20176;-76
2021/01/16 05:44:22;;;;;;;16.97;9.90;;;0.60;99.90;;;;;;4975361;28;20201;-76
2021/01/16 05:46:48;;;;;;;15.57;9.77;;;0.70;99.90;;;;;;4975258;28;20182;-77
2021/01/16 05:49:17;;;;;;;15.17;9.10;;;0.60;99.90;;;;;;4975240;28;20184;-76
2021/01/16 05:51:46;;;;;;;14.60;9.03;;;0.60;99.90;;;;;;4975594;28;20180;-76
2021/01/16 05:54:12;;;;;;;13.73;9.43;;;0.60;99.90;;;;;;4975183;28;20207;-76
2021/01/16 05:56:38;;;;;;;15.47;9.60;;;0.50;99.90;;;;;;4991442;28;20183;-76
2021/01/16 05:59:04;;;;;;;17.57;9.53;;;0.60;99.90;;;;;;4975228;28;20269;-77
2021/01/16 06:01:30;;;;;;;15.17;9.30;;;0.50;99.90;;;;;;4991474;28;20203;-77
2021/01/16 06:03:55;;;;;;;15.63;8.90;;;0.50;99.90;;;;;;4991419;28;20216;-76
2021/01/16 06:06:22;;;;;;;17.57;9.60;;;0.50;99.90;;;;;;4975128;28;20221;-77
2021/01/16 06:08:51;;;;;;;13.60;9.10;;;0.50;99.90;;;;;;4975187;28;20215;-77
2021/01/16 06:11:17;;;;;;;13.77;9.13;;;0.50;99.90;;;;;;4991303;28;20651;-76
2021/01/16 06:13:43;;;;;;;14.77;8.87;;;0.50;99.90;;;;;;4991298;28;20227;-76
2021/01/16 06:16:19;;;;;;;13.20;9.20;;;0.50;99.90;;;;;;4974838;28;20179;-77
2021/01/16 06:18:56;;;;;;;15.43;9.53;;;0.50;99.90;;;;;;4975248;28;20212;-77
2021/01/16 06:21:24;;;;;;;13.73;8.97;;;0.50;99.90;;;;;;4991401;28;20234;-76
2021/01/16 06:24:08;;;;;;;14.43;9.57;;;0.50;99.90;;;;;;4991283;28;20200;-77
2021/01/16 06:26:33;;;;;;;15.77;9.23;;;0.50;99.90;;;;;;4975094;28;20191;-77
2021/01/16 06:29:00;;;;;;;15.03;9.03;;;0.60;99.90;;;;;;4994612;28;20647;-76
2021/01/16 06:31:33;;;;;;;15.47;9.27;;;0.60;99.90;;;;;;4979045;28;20179;-76
2021/01/16 06:34:05;;;;;;;15.57;9.33;;;0.50;99.90;;;;;;4998172;28;20178;-76
2021/01/16 06:36:35;;;;;;;17.50;9.90;;;0.50;99.90;;;;;;4998116;28;20169;-77
2021/01/16 06:39:05;;;;;;;15.17;8.77;;;0.50;99.90;;;;;;4983086;28;20255;-77
2021/01/16 06:41:32;;;;;;;13.90;9.40;;;0.40;99.90;;;;;;4997720;28;20663;-77
2021/01/16 06:43:58;;;;;;;13.97;9.20;;;0.40;99.90;;;;;;4998059;28;20183;-76
2021/01/16 06:46:44;;;;;;;16.17;9.57;;;0.50;99.90;;;;;;5014235;28;20171;-76
2021/01/16 06:49:22;;;;;;;15.87;9.50;;;0.40;99.90;;;;;;5005005;28;20195;-77
2021/01/16 06:51:52;;;;;;;15.77;8.83;;;0.40;99.90;;;;;;5015326;28;20182;-77
2021/01/16 06:54:29;;;;;;;15.17;9.30;;;0.40;99.90;;;;;;5015336;28;20283;-78
2021/01/16 06:57:08;;;;;;;14.87;9.77;;;0.40;99.90;;;;;;4981184;28;20175;-77
2021/01/16 06:59:38;;;;;;;16.70;10.20;;;0.50;99.90;;;;;;4998357;28;20291;-78
2021/01/16 07:02:31;;;;;;;19.40;10.53;;;0.50;99.90;;;;;;4998553;28;20191;-77
2021/01/16 07:04:58;;;;;;;15.17;9.67;;;0.50;99.90;;;;;;4997118;28;20203;-77
2021/01/16 07:07:31;;;;;;;14.37;9.83;;;0.50;99.90;;;;;;4998480;28;20258;-77
2021/01/16 07:10:09;;;;;;;18.10;9.87;;;0.50;99.90;;;;;;4997871;28;20587;-77
2021/01/16 07:12:35;;;;;;;17.03;10.03;;;0.40;99.90;;;;;;5015675;28;20547;-77
2021/01/16 07:15:06;;;;;;;16.30;9.90;;;0.50;99.90;;;;;;4998055;28;20206;-77
2021/01/16 07:17:31;;;;;;;14.57;8.97;;;0.50;99.90;;;;;;4996928;28;20278;-77
2021/01/16 07:19:58;;;;;;;14.37;10.03;;;0.40;99.90;;;;;;4997342;28;20253;-77
2021/01/16 07:22:28;;;;;;;14.90;9.43;;;0.50;99.90;;;;;;4981915;28;20214;-81
2021/01/16 07:24:54;;;;;;;18.43;10.60;;;0.50;99.90;;;;;;4997682;28;20210;-79
2021/01/16 07:27:20;;;;;;;16.50;10.47;;;0.50;99.90;;;;;;5014082;28;20201;-80
2021/01/16 07:29:45;;;;;;;16.50;10.10;;;0.50;99.90;;;;;;4998199;28;20635;-80
2021/01/16 07:32:14;;;;;;;16.40;9.70;;;0.50;99.90;;;;;;5014203;28;20195;-79
2021/01/16 07:34:44;;;;;;;18.80;10.13;;;0.50;99.90;;;;;;4997811;28;20203;-80
2021/01/16 07:37:10;;;;;;;16.13;9.93;;;0.50;99.90;;;;;;4981981;28;20184;-79
2021/01/16 07:39:40;;;;;;;16.17;9.37;;;0.50;99.90;;;;;;4982909;28;20206;-79
2021/01/16 07:42:12;;;;;;;14.33;9.30;;;0.50;99.90;;;;;;4998938;28;20182;-78
2021/01/16 07:44:43;;;;;;;15.63;10.17;;;0.50;99.90;;;;;;4997307;28;20269;-77
2021/01/16 07:47:17;;;;;;;18.30;10.43;;;0.60;99.90;;;;;;5013348;28;20159;-75
2021/01/16 07:49:43;;;;;;;16.87;9.90;;;0.60;99.90;;;;;;5013549;28;20162;-76
2021/01/16 07:52:08;;;;;;;15.90;9.43;;;0.60;99.90;;;;;;4995894;28;20282;-77
2021/01/16 07:54:35;;;;;;;15.13;9.73;;;0.70;99.90;;;;;;4996685;28;20248;-76
2021/01/16 07:57:00;;;;;;;17.53;10.40;;;0.70;99.90;;;;;;4993830;28;20263;-76
2021/01/16 07:59:32;;;;;;;18.10;10.13;;;0.80;99.90;;;;;;4980161;28;20220;-76
2021/01/16 08:02:27;;;;;;;18.07;10.00;;;0.80;99.90;;;;;;4980208;28;20168;-75
2021/01/16 08:05:03;;;;;;;15.53;9.80;;;0.70;99.90;;;;;;4995674;28;20218;-76
2021/01/16 08:07:47;;;;;;;17.10;10.47;;;0.70;99.90;;;;;;5011186;28;20265;-77
2021/01/16 08:10:18;;;;;;;16.70;10.20;;;0.70;99.90;;;;;;5011927;28;20269;-77
2021/01/16 08:12:46;;;;;;;17.60;10.67;;;0.70;99.90;;;;;;4981079;28;20174;-77
2021/01/16 08:15:12;;;;;;;16.83;10.57;;;0.70;99.90;;;;;;4980534;28;20720;-76
2021/01/16 08:17:38;;;;;;;18.17;10.33;;;0.70;99.90;;;;;;4980331;28;20179;-76
2021/01/16 08:20:15;;;;;;;17.67;11.07;;;0.60;99.90;;;;;;4979905;28;20293;-76
2021/01/16 08:22:53;;;;;;;19.33;11.30;;;0.70;99.90;;;;;;5012208;28;20183;-77
2021/01/16 08:25:29;;;;;;;17.30;10.33;;;0.70;99.90;;;;;;4981166;28;20218;-77
2021/01/16 08:27:58;;;;;;;18.90;9.57;;;0.80;99.90;;;;;;4979558;28;20638;-76
2021/01/16 08:30:25;;;;;;;17.03;10.03;;;0.80;99.90;;;;;;4992850;28;20608;-75
2021/01/16 08:32:51;;;;;;;18.03;11.20;;;0.70;99.90;;;;;;4979806;28;20185;-77
2021/01/16 08:35:24;;;;;;;18.27;10.57;;;0.80;99.90;;;;;;5012996;28;20203;-76
2021/01/16 08:37:49;;;;;;;17.53;11.10;;;0.80;99.90;;;;;;4995694;28;20189;-77
2021/01/16 08:40:36;;;;;;;19.20;10.87;;;0.80;99.90;;;;;;4967477;28;20211;-77
2021/01/16 08:43:01;;;;;;;17.47;10.20;;;0.80;99.90;;;;;;4998332;28;20189;-76
2021/01/16 08:45:27;;;;;;;17.57;10.63;;;0.80;99.90;;;;;;4995685;28;20198;-76
2021/01/16 08:47:56;;;;;;;53.23;26.53;;;0.80;99.90;;;;;;4995981;28;20183;-76
2021/01/16 08:50:22;;;;;;;42.73;21.80;;;0.80;99.90;;;;;;4979354;28;20249;-76
2021/01/16 08:52:48;;;;;;;40.10;21.10;;;0.90;99.90;;;;;;4979259;28;20194;-76
2021/01/16 08:55:13;;;;;;;20.23;11.80;;;0.90;99.90;;;;;;4994855;28;20232;-77
2021/01/16 08:57:39;;;;;;;23.33;12.60;;;1.00;99.90;;;;;;4975646;28;20651;-76
2021/01/16 09:00:19;;;;;;;27.33;14.80;;;0.90;99.90;;;;;;4991768;28;20215;-76
2021/01/16 09:03:04;;;;;;;19.20;10.50;;;1.00;99.90;;;;;;4976047;28;20212;-76
2021/01/16 09:05:32;;;;;;;25.03;13.30;;;1.10;99.90;;;;;;4992267;28;20207;-76
2021/01/16 09:07:58;;;;;;;23.10;12.27;;;1.00;99.90;;;;;;4991818;28;20558;-77
2021/01/16 09:10:24;;;;;;;20.03;11.53;;;1.00;99.90;;;;;;4975368;28;20176;-77
2021/01/16 09:12:53;;;;;;;18.73;11.43;;;1.00;99.90;;;;;;4992041;28;20180;-76
2021/01/16 09:15:42;;;;;;;21.67;12.27;;;1.00;99.90;;;;;;4976092;28;20207;-76
2021/01/16 09:18:12;;;;;;;22.47;12.37;;;1.00;99.90;;;;;;4991807;28;20647;-77
2021/01/16 09:20:41;;;;;;;21.80;11.57;;;1.10;99.90;;;;;;4975688;28;20179;-76
2021/01/16 09:23:19;;;;;;;23.00;12.60;;;1.00;99.90;;;;;;4975790;28;20233;-77
2021/01/16 09:25:45;;;;;;;22.07;12.83;;;1.20;99.90;;;;;;4991437;28;20347;-76
2021/01/16 09:28:11;;;;;;;18.47;10.87;;;1.20;99.90;;;;;;4991310;28;20528;-76
2021/01/16 09:30:36;;;;;;;17.47;10.73;;;1.20;99.90;;;;;;4991777;28;20186;-77
2021/01/16 09:33:20;;;;;;;16.17;9.90;;;1.30;99.90;;;;;;4995035;28;20193;-77
2021/01/16 09:35:46;;;;;;;19.33;10.53;;;1.30;99.90;;;;;;5011970;28;20580;-76
2021/01/16 09:38:21;;;;;;;24.63;13.40;;;1.30;99.90;;;;;;4978866;28;20179;-76
2021/01/16 09:40:48;;;;;;;15.87;9.77;;;1.20;99.90;;;;;;4994852;28;20209;-76
2021/01/16 09:43:18;;;;;;;18.70;10.60;;;1.30;99.90;;;;;;4979061;28;20273;-76
2021/01/16 09:45:58;;;;;;;21.73;12.60;;;1.30;99.90;;;;;;4994678;28;20658;-77
2021/01/16 09:48:42;;;;;;;18.03;10.27;;;1.30;99.90;;;;;;4979462;28;20180;-76
2021/01/16 09:51:10;;;;;;;18.63;10.33;;;1.40;99.90;;;;;;4995578;28;20263;-76
2021/01/16 09:53:36;;;;;;;22.83;12.23;;;1.30;99.90;;;;;;4995027;28;20182;-76
2021/01/16 09:56:02;;;;;;;19.80;10.87;;;1.30;99.90;;;;;;4994650;28;20207;-76
2021/01/16 09:58:28;;;;;;;24.40;13.83;;;1.30;99.90;;;;;;4978617;28;20213;-77
2021/01/16 10:00:54;;;;;;;16.77;9.23;;;1.40;99.90;;;;;;5018857;28;20178;-78
2021/01/16 10:03:32;;;;;;;34.60;20.27;;;1.50;99.90;;;;;;4998107;28;20340;-77
2021/01/16 10:06:05;;;;;;;20.83;12.03;;;1.50;99.90;;;;;;4998186;28;20270;-77
2021/01/16 10:08:33;;;;;;;16.67;10.77;;;1.40;99.90;;;;;;5034959;28;20174;-76
2021/01/16 10:10:59;;;;;;;17.93;10.23;;;1.40;99.90;;;;;;5015772;28;20185;-78
2021/01/16 10:13:31;;;;;;;21.23;12.63;;;1.50;99.90;;;;;;5018473;28;20178;-78
2021/01/16 10:15:58;;;;;;;20.90;11.07;;;1.60;99.90;;;;;;5041830;23;20218;-79
2021/01/16 10:18:26;;;;;;;17.07;10.20;;;1.60;99.90;;;;;;5004659;28;20181;-78
2021/01/16 10:21:21;;;;;;;19.07;11.57;;;1.70;99.90;;;;;;5042501;28;20178;-79
2021/01/16 10:23:47;;;;;;;16.97;10.27;;;1.60;99.90;;;;;;5014584;28;20719;-82
2021/01/16 10:26:13;;;;;;;15.60;9.87;;;1.60;99.90;;;;;;5021095;28;20203;-84
2021/01/16 10:28:40;;;;;;;17.43;9.37;;;1.70;99.90;;;;;;5026890;28;20188;-81
2021/01/16 10:31:09;;;;;;;17.70;10.50;;;1.60;99.90;;;;;;4996108;28;20191;-80
2021/01/16 10:33:39;;;;;;;16.77;9.83;;;1.70;99.90;;;;;;4976830;28;20222;-84
2021/01/16 10:36:11;;;;;;;19.90;10.47;;;1.80;99.90;;;;;;5022984;28;20575;-80
2021/01/16 10:38:51;;;;;;;18.50;9.13;;;1.80;99.90;;;;;;5002640;28;20709;-79
2021/01/16 10:41:18;;;;;;;16.77;9.43;;;1.80;99.90;;;;;;4995437;28;20176;-78
2021/01/16 10:43:44;;;;;;;15.73;8.60;;;1.70;99.90;;;;;;4994950;28;20200;-73
2021/01/16 10:46:09;;;;;;;17.13;10.23;;;1.80;99.90;;;;;;5008976;28;20250;-78
2021/01/16 10:48:37;;;;;;;14.20;8.87;;;1.70;99.90;;;;;;5009880;28;20269;-77
2021/01/16 10:51:07;;;;;;;14.77;8.47;;;1.80;99.90;;;;;;5013883;28;20172;-78
2021/01/16 10:53:38;;;;;;;12.40;7.50;;;1.80;99.90;;;;;;5000721;28;20532;-79
2021/01/16 10:56:14;;;;;;;14.20;7.87;;;1.80;99.90;;;;;;4989172;28;20226;-81
2021/01/16 10:58:40;;;;;;;13.97;7.97;;;1.80;99.90;;;;;;5005022;28;20265;-81
2021/01/16 11:01:07;;;;;;;12.70;7.57;;;1.80;99.90;;;;;;4985594;28;20183;-81
2021/01/16 11:03:33;;;;;;;15.80;8.40;;;1.80;99.90;;;;;;4978532;28;20232;-81
2021/01/16 11:06:09;;;;;;;13.87;7.93;;;1.80;99.90;;;;;;5000613;28;20437;-80
2021/01/16 11:08:39;;;;;;;12.37;7.17;;;1.90;99.90;;;;;;5009186;28;20186;-79
2021/01/16 11:11:28;;;;;;;13.53;7.60;;;1.90;99.90;;;;;;4988005;28;20199;-79
2021/01/16 11:13:53;;;;;;;16.10;7.53;;;2.00;99.90;;;;;;5012911;28;20179;-79
2021/01/16 11:16:20;;;;;;;13.13;8.03;;;2.00;99.90;;;;;;5013223;28;20296;-79
2021/01/16 11:18:46;;;;;;;13.03;7.83;;;2.00;99.90;;;;;;4983732;28;20346;-79
2021/01/16 11:21:31;;;;;;;16.47;8.90;;;2.00;99.90;;;;;;4995215;28;20180;-78
2021/01/16 11:24:13;;;;;;;13.60;8.47;;;2.10;99.90;;;;;;5011795;28;20226;-79
2021/01/16 11:26:46;;;;;;;14.63;7.70;;;2.10;99.90;;;;;;5011869;28;20242;-79
2021/01/16 11:29:19;;;;;;;13.07;7.90;;;2.00;99.90;;;;;;5001940;28;20211;-81
2021/01/16 11:31:50;;;;;;;14.87;8.67;;;1.90;99.90;;;;;;4967835;28;20208;-81
2021/01/16 11:34:24;;;;;;;14.07;8.80;;;1.90;99.90;;;;;;5015461;28;20191;-82
2021/01/16 11:36:57;;;;;;;13.60;8.33;;;2.00;99.90;;;;;;4989766;28;20171;-79
2021/01/16 11:39:44;;;;;;;11.50;7.63;;;2.10;99.90;;;;;;5019200;28;20209;-82
2021/01/16 11:42:12;;;;;;;13.50;8.17;;;2.20;99.90;;;;;;5017813;28;20184;-77
2021/01/16 11:44:52;;;;;;;16.63;9.07;;;2.20;99.90;;;;;;4997868;28;20202;-76
2021/01/16 11:47:17;;;;;;;16.53;9.17;;;2.30;99.90;;;;;;4997948;28;20180;-77
2021/01/16 11:49:43;;;;;;;14.73;8.93;;;2.20;99.90;;;;;;4980874;28;20186;-77
2021/01/16 11:52:09;;;;;;;16.87;8.67;;;2.30;99.90;;;;;;4980766;28;20198;-78
2021/01/16 11:54:34;;;;;;;15.93;9.60;;;2.40;99.90;;;;;;4997656;28;20206;-81
2021/01/16 11:57:00;;;;;;;16.40;9.10;;;2.40;99.90;;;;;;4985474;28;20190;-81
2021/01/16 11:59:25;;;;;;;12.63;8.50;;;2.40;99.90;;;;;;4987156;28;20194;-80
2021/01/16 12:01:51;;;;;;;15.90;9.30;;;2.40;99.90;;;;;;4988867;28;20205;-80
2021/01/16 12:04:17;;;;;;;16.03;8.80;;;2.40;99.90;;;;;;5006249;28;20208;-83
2021/01/16 12:06:42;;;;;;;16.97;9.77;;;2.30;99.90;;;;;;5000185;28;20199;-80
2021/01/16 12:09:08;;;;;;;14.37;9.17;;;2.40;99.90;;;;;;4998899;28;20230;-80
2021/01/16 12:11:33;;;;;;;16.20;9.27;;;2.40;99.90;;;;;;4983149;28;20560;-79
2021/01/16 12:14:00;;;;;;;20.03;9.63;;;2.40;99.90;;;;;;4977801;28;20667;-80
2021/01/16 12:16:32;;;;;;;15.07;9.20;;;2.40;99.90;;;;;;4980056;28;20185;-83
2021/01/16 12:18:57;;;;;;;16.27;10.13;;;2.30;99.90;;;;;;4978600;28;20206;-77
2021/01/16 12:21:23;;;;;;;15.73;9.30;;;2.40;99.90;;;;;;4996348;28;20180;-79
2021/01/16 12:23:49;;;;;;;16.50;9.37;;;2.40;99.90;;;;;;4982344;28;20193;-77
2021/01/16 12:26:16;;;;;;;14.47;9.80;;;2.30;99.90;;;;;;4997803;28;20210;-76
2021/01/16 12:28:49;;;;;;;15.33;10.13;;;2.40;99.90;;;;;;4996091;28;20199;-78
2021/01/16 12:31:19;;;;;;;19.43;9.73;;;2.30;99.90;;;;;;4997570;28;20164;-78
2021/01/16 12:33:44;;;;;;;17.27;9.93;;;2.30;99.90;;;;;;4997967;28;20167;-79
2021/01/16 12:36:10;;;;;;;16.97;10.03;;;2.30;99.90;;;;;;5013831;28;20257;-77
2021/01/16 12:38:36;;;;;;;17.10;10.17;;;2.30;99.90;;;;;;5012981;28;20532;-79
2021/01/16 12:41:01;;;;;;;15.90;10.07;;;2.40;99.90;;;;;;4996969;28;20182;-80
2021/01/16 12:43:27;;;;;;;17.57;10.23;;;2.40;99.90;;;;;;4980561;28;20210;-78
2021/01/16 12:45:53;;;;;;;15.73;10.37;;;2.30;99.90;;;;;;4993596;28;20194;-78
2021/01/16 12:48:18;;;;;;;16.53;10.37;;;2.30;99.90;;;;;;4961493;28;20197;-76
2021/01/16 12:50:44;;;;;;;18.10;10.43;;;2.40;99.90;;;;;;4993562;28;20183;-75